createdAt,value
2018-02-21T00:01:09.600Z,1.80
2018-02-21T00:03:43.268Z,1.80
2018-02-21T00:06:18.027Z,1.80
2018-02-21T00:08:52.600Z,1.80
2018-02-21T00:11:26.371Z,1.70
2018-02-21T00:14:00.980Z,1.70
2018-02-21T00:16:34.963Z,1.70
2018-02-21T00:19:08.768Z,1.70
2018-02-21T00:21:42.936Z,1.60
2018-02-21T00:24:16.967Z,1.60
2018-02-21T00:26:51.022Z,1.60
2018-02-21T00:29:25.168Z,1.60
2018-02-21T00:31:59.207Z,1.60
2018-02-21T00:34:33.268Z,1.50
2018-02-21T00:37:07.781Z,1.50
2018-02-21T00:39:41.809Z,1.50
2018-02-21T00:42:16.028Z,1.50
2018-02-21T00:44:49.792Z,1.50
2018-02-21T00:47:24.044Z,1.50
2018-02-21T00:49:58.935Z,1.50
2018-02-21T00:52:33.383Z,1.50
2018-02-21T00:55:08.204Z,1.50
2018-02-21T00:57:42.815Z,1.50
2018-02-21T01:00:17.366Z,1.40
2018-02-21T01:02:52.215Z,1.50
2018-02-21T01:05:26.490Z,1.50
2018-02-21T01:08:01.164Z,1.40
2018-02-21T01:10:34.702Z,1.40
2018-02-21T01:13:08.344Z,1.30
2018-02-21T01:15:42.043Z,1.30
2018-02-21T01:18:16.872Z,1.30
2018-02-21T01:20:51.238Z,1.30
2018-02-21T01:23:25.231Z,1.20
2018-02-21T01:25:59.084Z,1.20
2018-02-21T01:28:32.890Z,1.20
2018-02-21T01:31:06.855Z,1.10
2018-02-21T01:33:41.423Z,1.10
2018-02-21T01:36:15.550Z,1.10
2018-02-21T01:38:49.412Z,1.10
2018-02-21T01:41:23.170Z,1.00
2018-02-21T01:43:57.800Z,1.00
2018-02-21T01:46:31.937Z,1.00
2018-02-21T01:49:06.721Z,0.90
2018-02-21T01:51:41.064Z,0.90
2018-02-21T01:54:14.903Z,0.80
2018-02-21T01:56:49.181Z,0.80
2018-02-21T01:59:23.491Z,0.80
2018-02-21T02:01:57.398Z,0.70
2018-02-21T02:04:31.712Z,0.70
2018-02-21T02:07:06.047Z,0.70
2018-02-21T02:09:40.040Z,0.70
2018-02-21T02:12:14.113Z,0.70
2018-02-21T02:14:47.928Z,0.70
2018-02-21T02:17:22.110Z,0.70
2018-02-21T02:19:56.175Z,0.70
2018-02-21T02:22:30.038Z,0.60
2018-02-21T02:25:04.351Z,0.60
2018-02-21T02:27:39.123Z,0.50
2018-02-21T02:30:13.380Z,0.50
2018-02-21T02:32:48.331Z,0.40
2018-02-21T02:35:22.737Z,0.40
2018-02-21T02:37:56.503Z,0.40
2018-02-21T02:40:31.019Z,0.30
2018-02-21T02:43:05.992Z,0.20
2018-02-21T02:45:40.013Z,0.20
2018-02-21T02:48:13.714Z,0.20
2018-02-21T02:50:47.926Z,0.20
2018-02-21T02:53:22.637Z,0.20
2018-02-21T02:55:56.846Z,0.30
2018-02-21T02:58:30.632Z,0.20
2018-02-21T03:01:05.191Z,0.30
2018-02-21T03:03:39.366Z,0.30
2018-02-21T03:06:13.216Z,2.20
2018-02-21T03:08:47.211Z,0.30
2018-02-21T03:11:21.296Z,0.30
2018-02-21T03:13:55.435Z,0.40
2018-02-21T03:16:29.963Z,0.40
2018-02-21T03:19:04.054Z,1.00
2018-02-21T03:21:38.334Z,0.40
2018-02-21T03:24:12.340Z,0.40
2018-02-21T03:26:46.587Z,0.30
2018-02-21T03:29:20.584Z,0.30
2018-02-21T03:31:54.539Z,0.20
2018-02-21T03:34:28.807Z,0.30
2018-02-21T03:37:02.477Z,0.20
2018-02-21T03:39:36.540Z,0.20
2018-02-21T03:42:10.675Z,0.30
2018-02-21T03:44:45.004Z,3.70
2018-02-21T03:47:19.260Z,0.30
2018-02-21T03:49:54.195Z,0.30
2018-02-21T03:52:28.428Z,0.30
2018-02-21T03:55:02.983Z,0.30
2018-02-21T03:57:36.990Z,0.30
2018-02-21T04:00:10.827Z,0.30
2018-02-21T04:02:44.691Z,0.30
2018-02-21T04:05:19.224Z,0.30
2018-02-21T04:07:53.472Z,0.30
2018-02-21T04:10:28.171Z,0.30
2018-02-21T04:13:02.507Z,0.30
2018-02-21T04:15:36.280Z,0.30
2018-02-21T04:18:11.011Z,0.30
2018-02-21T04:20:45.456Z,0.20
2018-02-21T04:23:19.558Z,4.50
2018-02-21T04:25:53.572Z,0.20
2018-02-21T04:28:28.492Z,0.20
2018-02-21T04:31:03.417Z,0.20
2018-02-21T04:33:37.933Z,0.20
2018-02-21T04:36:12.609Z,0.10
2018-02-21T04:38:46.456Z,0.20
2018-02-21T04:41:20.954Z,0.10
2018-02-21T04:43:56.158Z,0.20
2018-02-21T04:46:30.462Z,0.20
2018-02-21T04:49:05.367Z,0.20
2018-02-21T04:51:39.168Z,0.20
2018-02-21T04:57:16.715Z,0.10
2018-02-21T04:59:56.689Z,0.00
2018-02-21T05:02:31.606Z,0.00
2018-02-21T05:05:05.900Z,0.00
2018-02-21T05:07:40.275Z,0.00
2018-02-21T05:10:13.941Z,0.00
2018-02-21T05:12:47.777Z,0.00
2018-02-21T05:15:21.555Z,-0.10
2018-02-21T05:17:56.099Z,-0.10
2018-02-21T05:20:30.329Z,-0.10
2018-02-21T05:23:04.864Z,-0.20
2018-02-21T05:25:38.585Z,-0.20
2018-02-21T05:28:12.246Z,-0.20
2018-02-21T05:30:46.229Z,-0.10
2018-02-21T05:33:20.577Z,-0.20
2018-02-21T05:35:54.238Z,2.90
2018-02-21T05:38:28.068Z,-0.20
2018-02-21T05:41:01.653Z,-0.20
2018-02-21T05:43:35.415Z,-0.20
2018-02-21T05:46:09.950Z,-0.10
2018-02-21T05:48:43.708Z,-0.10
2018-02-21T05:51:17.599Z,-0.20
2018-02-21T05:53:52.259Z,-0.20
2018-02-21T05:56:26.151Z,-0.20
2018-02-21T05:59:00.750Z,-0.10
2018-02-21T06:01:35.139Z,-0.20
2018-02-21T06:04:09.357Z,-0.20
2018-02-21T06:06:43.832Z,-0.20
2018-02-21T06:09:17.544Z,-0.10
2018-02-21T06:11:52.208Z,-0.10
2018-02-21T06:14:26.869Z,-0.20
2018-02-21T06:17:00.846Z,-0.20
2018-02-21T06:19:34.501Z,-0.20
2018-02-21T06:22:09.060Z,-0.20
2018-02-21T06:24:43.025Z,-0.20
2018-02-21T06:27:16.730Z,-0.20
2018-02-21T06:29:50.444Z,-0.20
2018-02-21T06:32:24.442Z,-0.10
2018-02-21T06:34:59.558Z,-0.10
2018-02-21T06:37:33.800Z,0.40
2018-02-21T06:40:08.225Z,0.00
2018-02-21T06:42:42.799Z,0.00
2018-02-21T06:45:16.858Z,0.10
2018-02-21T06:47:50.564Z,0.10
2018-02-21T06:50:24.412Z,0.10
2018-02-21T06:52:58.367Z,0.20
2018-02-21T06:55:31.972Z,0.20
2018-02-21T06:58:06.018Z,2.70
2018-02-21T07:00:40.227Z,0.30
2018-02-21T07:03:13.941Z,0.30
2018-02-21T07:05:47.681Z,0.30
2018-02-21T07:08:21.335Z,0.40
2018-02-21T07:10:55.708Z,0.30
2018-02-21T07:13:29.633Z,0.30
2018-02-21T07:16:03.407Z,0.40
2018-02-21T07:18:37.121Z,0.40
2018-02-21T07:21:10.872Z,0.50
2018-02-21T07:23:45.351Z,0.60
2018-02-21T07:26:19.199Z,0.70
2018-02-21T07:28:53.772Z,1.00
2018-02-21T07:31:27.456Z,1.30
2018-02-21T07:34:01.108Z,1.30
2018-02-21T07:36:34.785Z,1.50
2018-02-21T07:39:08.579Z,1.70
2018-02-21T07:41:42.212Z,1.80
2018-02-21T07:44:15.866Z,2.10
2018-02-21T07:46:49.474Z,2.70
2018-02-21T07:49:24.707Z,4.20
2018-02-21T07:51:58.624Z,4.20
2018-02-21T07:54:32.412Z,4.40
2018-02-21T07:57:06.180Z,4.60
2018-02-21T07:59:40.256Z,4.70
2018-02-21T08:02:14.777Z,5.20
2018-02-21T08:04:49.077Z,5.10
2018-02-21T08:07:24.127Z,5.20
2018-02-21T08:09:58.095Z,5.20
2018-02-21T08:12:31.813Z,5.30
2018-02-21T08:15:05.641Z,4.90
2018-02-21T08:17:40.603Z,4.20
2018-02-21T08:20:14.741Z,4.20
2018-02-21T08:22:49.225Z,5.30
2018-02-21T08:25:23.488Z,5.30
2018-02-21T08:27:57.216Z,6.20
2018-02-21T08:30:30.977Z,7.10
2018-02-21T08:33:04.598Z,7.30
2018-02-21T08:35:38.410Z,7.70
2018-02-21T08:38:12.180Z,7.70
2018-02-21T08:40:45.871Z,7.70
2018-02-21T08:43:20.240Z,8.30
2018-02-21T08:45:54.171Z,8.30
2018-02-21T08:48:27.788Z,9.50
2018-02-21T08:51:01.453Z,10.40
2018-02-21T08:53:35.352Z,11.00
2018-02-21T08:56:09.203Z,11.80
2018-02-21T08:58:42.988Z,12.40
2018-02-21T09:01:16.897Z,12.50
2018-02-21T09:03:50.560Z,12.60
2018-02-21T09:06:25.146Z,13.90
2018-02-21T09:08:58.971Z,13.90
2018-02-21T09:11:32.836Z,15.10
2018-02-21T09:14:06.415Z,16.20
2018-02-21T09:16:40.393Z,17.30
2018-02-21T09:19:14.112Z,17.50
2018-02-21T09:21:48.259Z,18.10
2018-02-21T09:24:22.102Z,18.60
2018-02-21T09:26:56.612Z,19.80
2018-02-21T09:29:30.739Z,19.70
2018-02-21T09:32:04.869Z,19.50
2018-02-21T09:34:38.640Z,18.60
2018-02-21T09:37:12.532Z,18.20
2018-02-21T09:39:46.980Z,19.50
2018-02-21T09:42:20.959Z,19.50
2018-02-21T09:44:55.500Z,20.30
2018-02-21T09:47:29.397Z,20.30
2018-02-21T09:50:03.925Z,21.20
2018-02-21T09:52:38.449Z,21.60
2018-02-21T09:55:12.240Z,21.60
2018-02-21T09:57:46.788Z,21.00
2018-02-21T10:00:20.662Z,21.00
2018-02-21T10:02:55.112Z,19.70
2018-02-21T10:05:29.001Z,19.60
2018-02-21T10:08:02.918Z,18.60
2018-02-21T10:10:36.586Z,18.30
2018-02-21T10:13:11.067Z,17.50
2018-02-21T10:15:45.030Z,17.50
2018-02-21T10:18:18.628Z,17.10
2018-02-21T10:20:52.459Z,16.70
2018-02-21T10:23:26.909Z,17.10
2018-02-21T10:26:00.935Z,17.00
2018-02-21T10:28:35.522Z,18.80
2018-02-21T10:31:09.549Z,18.80
2018-02-21T10:33:43.320Z,19.50
2018-02-21T10:36:16.995Z,20.20
2018-02-21T10:38:50.875Z,20.50
2018-02-21T10:41:25.494Z,20.70
2018-02-21T10:43:59.671Z,20.70
2018-02-21T10:46:33.719Z,20.70
2018-02-21T10:49:07.624Z,20.30
2018-02-21T10:51:41.501Z,19.80
2018-02-21T10:54:15.331Z,19.20
2018-02-21T10:56:49.115Z,18.70
2018-02-21T10:59:23.646Z,17.70
2018-02-21T11:01:57.796Z,17.70
2018-02-21T11:04:31.526Z,17.80
2018-02-21T11:07:05.310Z,17.90
2018-02-21T11:09:39.099Z,18.20
2018-02-21T11:12:13.724Z,18.80
2018-02-21T11:14:47.562Z,19.00
2018-02-21T11:17:21.333Z,19.00
2018-02-21T11:19:55.101Z,19.10
2018-02-21T11:22:28.919Z,19.20
2018-02-21T11:25:02.589Z,18.90
2018-02-21T11:27:36.450Z,18.70
2018-02-21T11:30:10.272Z,18.50
2018-02-21T11:32:44.202Z,18.40
2018-02-21T11:35:18.852Z,18.80
2018-02-21T11:37:52.915Z,18.80
2018-02-21T11:40:26.596Z,18.70
2018-02-21T11:43:01.136Z,18.70
2018-02-21T11:45:35.347Z,18.70
2018-02-21T11:48:09.062Z,18.40
2018-02-21T11:50:42.960Z,17.70
2018-02-21T11:53:16.732Z,17.30
2018-02-21T11:55:51.445Z,16.70
2018-02-21T11:58:25.341Z,16.60
2018-02-21T12:00:59.016Z,16.20
2018-02-21T12:03:32.859Z,16.00
2018-02-21T12:06:06.738Z,15.70
2018-02-21T12:08:40.259Z,15.60
2018-02-21T12:11:13.934Z,15.50
2018-02-21T12:13:48.405Z,14.80
2018-02-21T12:16:24.254Z,14.60
2018-02-21T12:18:58.036Z,14.60
2018-02-21T12:21:32.663Z,14.40
2018-02-21T12:24:06.446Z,14.40
2018-02-21T12:26:40.265Z,14.20
2018-02-21T12:29:14.946Z,13.50
2018-02-21T12:31:50.118Z,13.50
2018-02-21T12:34:24.490Z,13.70
2018-02-21T12:36:58.073Z,13.90
2018-02-21T12:39:33.636Z,14.00
2018-02-21T12:42:07.556Z,14.10
2018-02-21T12:44:41.380Z,14.00
2018-02-21T12:47:15.171Z,13.70
2018-02-21T12:49:49.045Z,13.50
2018-02-21T12:52:23.493Z,13.50
2018-02-21T12:54:57.763Z,13.50
2018-02-21T12:57:31.487Z,13.60
2018-02-21T13:00:05.110Z,13.10
2018-02-21T13:02:39.128Z,12.40
2018-02-21T13:05:13.622Z,11.40
2018-02-21T13:07:47.724Z,11.40
2018-02-21T13:10:22.505Z,11.30
2018-02-21T13:12:56.413Z,11.20
2018-02-21T13:15:31.203Z,11.30
2018-02-21T13:18:06.035Z,11.30
2018-02-21T13:20:39.959Z,11.30
2018-02-21T13:23:13.598Z,11.20
2018-02-21T13:25:47.352Z,11.20
2018-02-21T13:28:21.076Z,10.90
2018-02-21T13:30:54.652Z,10.80
2018-02-21T13:33:29.089Z,11.10
2018-02-21T13:36:03.092Z,11.00
2018-02-21T13:38:37.511Z,11.10
2018-02-21T13:41:11.404Z,11.10
2018-02-21T13:43:45.862Z,10.90
2018-02-21T13:46:19.888Z,10.80
2018-02-21T13:48:53.744Z,10.70
2018-02-21T13:51:27.430Z,10.70
2018-02-21T13:54:01.176Z,10.50
2018-02-21T13:56:34.986Z,10.40
2018-02-21T13:59:09.056Z,10.50
2018-02-21T14:01:43.468Z,10.40
2018-02-21T14:04:18.135Z,10.40
2018-02-21T14:06:52.143Z,10.30
2018-02-21T14:09:26.273Z,10.30
2018-02-21T14:12:00.872Z,10.00
2018-02-21T14:14:34.740Z,9.90
2018-02-21T14:17:08.474Z,9.60
2018-02-21T14:19:42.172Z,9.30
2018-02-21T14:22:16.705Z,9.00
2018-02-21T14:24:50.458Z,9.00
2018-02-21T14:27:24.075Z,8.90
2018-02-21T14:29:57.763Z,8.60
2018-02-21T14:32:32.700Z,8.40
2018-02-21T14:35:06.299Z,8.40
2018-02-21T14:37:39.970Z,8.50
2018-02-21T14:40:13.811Z,8.70
2018-02-21T14:42:47.546Z,8.80
2018-02-21T14:45:22.060Z,8.80
2018-02-21T14:47:56.077Z,9.20
2018-02-21T14:50:29.915Z,8.70
2018-02-21T14:53:03.590Z,8.60
2018-02-21T14:55:37.172Z,8.60
2018-02-21T14:58:10.914Z,8.40
2018-02-21T15:00:45.892Z,8.30
2018-02-21T15:03:19.502Z,8.30
2018-02-21T15:05:53.337Z,8.10
2018-02-21T15:08:26.951Z,8.10
2018-02-21T15:11:00.697Z,7.90
2018-02-21T15:13:34.302Z,7.80
2018-02-21T15:16:09.071Z,7.80
2018-02-21T15:18:43.494Z,7.80
2018-02-21T15:21:18.318Z,7.80
2018-02-21T15:23:52.171Z,4.00
2018-02-21T15:26:26.972Z,7.60
2018-02-21T15:29:01.097Z,7.60
2018-02-21T15:31:35.599Z,7.50
2018-02-21T15:34:09.622Z,7.50
2018-02-21T15:36:43.607Z,7.40
2018-02-21T15:39:17.458Z,7.40
2018-02-21T15:41:52.244Z,7.50
2018-02-21T15:44:26.433Z,7.40
2018-02-21T15:47:00.139Z,7.50
2018-02-21T15:49:33.985Z,7.50
2018-02-21T15:52:07.762Z,7.50
2018-02-21T15:54:41.497Z,7.50
2018-02-21T15:57:15.239Z,7.40
2018-02-21T15:59:49.711Z,7.00
2018-02-21T16:02:23.638Z,7.00
2018-02-21T16:04:57.206Z,6.90
2018-02-21T16:07:30.880Z,6.90
2018-02-21T16:10:04.559Z,6.80
2018-02-21T16:12:38.327Z,6.70
2018-02-21T16:15:11.995Z,6.60
2018-02-21T16:17:45.878Z,6.40
2018-02-21T16:20:19.583Z,6.30
2018-02-21T16:22:53.339Z,6.30
2018-02-21T16:25:27.057Z,6.30
2018-02-21T16:28:00.823Z,3.20
2018-02-21T16:30:34.613Z,6.40
2018-02-21T16:33:09.172Z,6.50
2018-02-21T16:35:43.388Z,6.50
2018-02-21T16:38:17.004Z,6.40
2018-02-21T16:40:50.882Z,6.40
2018-02-21T16:43:25.427Z,6.20
2018-02-21T16:45:59.376Z,6.20
2018-02-21T16:48:33.191Z,6.10
2018-02-21T16:51:07.800Z,6.10
2018-02-21T16:53:42.719Z,6.00
2018-02-21T16:56:16.638Z,6.00
2018-02-21T16:58:51.739Z,5.90
2018-02-21T17:01:25.747Z,5.90
2018-02-21T17:03:59.545Z,5.90
2018-02-21T17:06:33.397Z,5.90
2018-02-21T17:09:07.245Z,6.00
2018-02-21T17:11:41.080Z,6.00
2018-02-21T17:14:14.723Z,5.90
2018-02-21T17:16:48.271Z,6.00
2018-02-21T17:19:22.124Z,6.00
2018-02-21T17:21:55.847Z,6.00
2018-02-21T17:27:09.590Z,6.00
2018-02-21T17:29:44.363Z,6.10
2018-02-21T17:32:19.016Z,6.10
2018-02-21T17:34:52.998Z,6.10
2018-02-21T17:37:26.759Z,6.10
2018-02-21T17:40:00.335Z,6.10
2018-02-21T17:42:34.004Z,6.10
2018-02-21T17:45:08.543Z,6.10
2018-02-21T17:47:42.348Z,6.10
2018-02-21T17:50:16.782Z,6.00
2018-02-21T17:52:50.672Z,6.00
2018-02-21T17:55:24.451Z,6.00
2018-02-21T17:57:58.214Z,5.80
2018-02-21T18:00:32.896Z,5.60
2018-02-21T18:03:06.732Z,5.60
2018-02-21T18:05:40.632Z,5.60
2018-02-21T18:08:14.266Z,5.60
2018-02-21T18:10:48.099Z,5.60
2018-02-21T18:13:22.463Z,5.50
2018-02-21T18:15:57.179Z,5.50
2018-02-21T18:18:31.022Z,5.50
2018-02-21T18:21:05.510Z,5.60
2018-02-21T18:23:39.444Z,5.50
2018-02-21T18:26:13.212Z,5.50
2018-02-21T18:28:47.534Z,5.50
2018-02-21T18:31:21.563Z,5.50
2018-02-21T18:33:55.359Z,5.40
2018-02-21T18:36:29.891Z,5.30
2018-02-21T18:39:04.039Z,5.30
2018-02-21T18:41:37.836Z,5.30
2018-02-21T18:44:11.628Z,5.40
2018-02-21T18:46:46.229Z,5.40
2018-02-21T18:49:20.407Z,5.40
2018-02-21T18:51:55.158Z,5.40
2018-02-21T18:54:29.067Z,5.30
2018-02-21T18:57:02.799Z,5.30
2018-02-21T18:59:37.224Z,5.20
2018-02-21T19:02:11.804Z,5.10
2018-02-21T19:04:45.886Z,5.10
2018-02-21T19:07:19.998Z,5.10
2018-02-21T19:09:53.664Z,5.10
2018-02-21T19:12:28.471Z,5.10
2018-02-21T19:15:03.116Z,5.10
2018-02-21T19:17:37.813Z,5.10
2018-02-21T19:20:12.467Z,5.10
2018-02-21T19:22:46.491Z,5.10
2018-02-21T19:25:20.283Z,5.10
2018-02-21T19:27:54.708Z,5.20
2018-02-21T19:30:28.593Z,5.20
2018-02-21T19:33:02.288Z,5.20
2018-02-21T19:35:36.916Z,5.10
2018-02-21T19:38:10.508Z,5.10
2018-02-21T19:40:45.287Z,5.10
2018-02-21T19:43:18.908Z,5.10
2018-02-21T19:45:53.767Z,5.10
2018-02-21T19:48:28.414Z,5.10
2018-02-21T19:51:02.036Z,5.10
2018-02-21T19:53:35.854Z,5.00
2018-02-21T19:56:09.535Z,5.00
2018-02-21T19:58:43.424Z,4.90
2018-02-21T20:01:18.053Z,4.80
2018-02-21T20:03:52.530Z,4.80
2018-02-21T20:06:26.580Z,4.60
2018-02-21T20:09:01.071Z,4.60
2018-02-21T20:11:35.736Z,4.50
2018-02-21T20:14:09.596Z,4.50
2018-02-21T20:16:43.296Z,4.40
2018-02-21T20:19:17.117Z,4.40
2018-02-21T20:21:50.833Z,4.40
2018-02-21T20:24:24.633Z,4.20
2018-02-21T20:26:58.249Z,4.10
2018-02-21T20:29:31.911Z,4.00
2018-02-21T20:32:05.552Z,4.00
2018-02-21T20:34:40.032Z,3.80
2018-02-21T20:37:13.757Z,3.80
2018-02-21T20:39:47.395Z,3.80
2018-02-21T20:42:21.132Z,3.80
2018-02-21T20:44:54.858Z,3.70
2018-02-21T20:47:29.419Z,3.60
2018-02-21T20:50:03.231Z,3.60
2018-02-21T20:52:37.795Z,3.50
2018-02-21T20:55:11.553Z,3.50
2018-02-21T20:57:45.169Z,3.50
2018-02-21T21:00:19.029Z,3.50
2018-02-21T21:02:52.587Z,3.40
2018-02-21T21:05:26.404Z,3.40
2018-02-21T21:08:00.068Z,3.40
2018-02-21T21:10:34.708Z,3.40
2018-02-21T21:13:08.732Z,3.30
2018-02-21T21:15:42.465Z,3.30
2018-02-21T21:18:16.147Z,3.30
2018-02-21T21:20:49.916Z,3.20
2018-02-21T21:23:23.447Z,3.20
2018-02-21T21:25:57.236Z,3.10
2018-02-21T21:28:30.996Z,3.10
2018-02-21T21:31:04.615Z,3.00
2018-02-21T21:33:38.675Z,2.90
2018-02-21T21:36:14.212Z,2.90
2018-02-21T21:38:49.005Z,2.90
2018-02-21T21:41:22.659Z,2.90
2018-02-21T21:43:56.441Z,2.80
2018-02-21T21:46:30.868Z,2.80
2018-02-21T21:49:04.757Z,2.70
2018-02-21T21:51:39.073Z,2.70
2018-02-21T21:54:13.043Z,2.70
2018-02-21T21:56:47.630Z,2.80
2018-02-21T21:59:21.457Z,2.70
2018-02-21T22:01:55.238Z,2.70
2018-02-21T22:04:29.013Z,2.70
2018-02-21T22:07:03.547Z,2.70
2018-02-21T22:09:37.332Z,2.70
2018-02-21T22:12:10.910Z,2.70
2018-02-21T22:14:45.302Z,2.70
2018-02-21T22:17:19.274Z,2.70
2018-02-21T22:19:52.902Z,2.70
2018-02-21T22:22:26.773Z,2.70
2018-02-21T22:25:00.324Z,2.70
2018-02-21T22:27:34.844Z,2.70
2018-02-21T22:30:08.978Z,2.80
2018-02-21T22:32:43.576Z,2.80
2018-02-21T22:35:17.507Z,2.80
2018-02-21T22:37:51.923Z,2.70
2018-02-21T22:40:25.932Z,2.70
2018-02-21T22:42:59.736Z,2.70
2018-02-21T22:45:33.572Z,2.70
2018-02-21T22:48:07.421Z,2.70
2018-02-21T22:50:41.142Z,2.70
2018-02-21T22:53:14.882Z,2.60
2018-02-21T22:55:49.443Z,2.40
2018-02-21T22:58:23.480Z,2.40
2018-02-21T23:00:57.156Z,2.30
2018-02-21T23:03:30.880Z,2.30
2018-02-21T23:06:04.464Z,2.20
2018-02-21T23:08:37.966Z,2.20
2018-02-21T23:11:12.525Z,2.10
2018-02-21T23:13:47.182Z,2.10
2018-02-21T23:16:21.210Z,2.10
2018-02-21T23:18:55.021Z,2.10
2018-02-21T23:21:28.682Z,2.10
2018-02-21T23:24:02.286Z,2.10
2018-02-21T23:26:35.943Z,2.00
2018-02-21T23:29:09.540Z,2.00
2018-02-21T23:31:43.203Z,2.00
2018-02-21T23:34:16.781Z,2.00
2018-02-21T23:36:50.475Z,2.00
2018-02-21T23:39:24.176Z,2.00
2018-02-21T23:41:58.307Z,1.90
2018-02-21T23:44:32.599Z,1.90
2018-02-21T23:47:06.333Z,1.90
2018-02-21T23:49:39.955Z,1.90
2018-02-21T23:52:13.627Z,1.90
2018-02-21T23:54:47.319Z,1.90
2018-02-21T23:57:21.110Z,1.90
2018-02-21T23:59:54.806Z,1.90
